Portland, Oregon
Traffic Map
Current Weather Conditions
Portland, Oregon
Scattered Clouds
Scattered Clouds
72°
Feels Like: 72°
Wind Chill: 72° Ceiling: Unl
Heat Index: 72° Visibility: 10mi
Dew Point: 54° Wind: 14mph
Humidity: 53% Direction: 330° (NNW)
Pressure: 30.09in Gusts: 22mph
Raw Report DataKPDX 200253Z 33012G19KT 10SM SCT250 22/12 A3009 RMK AO2 SLP190 T02220122 55002
Traffic Incident Summary
Active as of:
Severity:
Category:
InformationThere was an issue retrieving the traffic information for this location. Please try a different location or try again shortly.
Advertisements